sensor_id;sensor_type;location;lat;lon;timestamp;P1;durP1;ratioP1;P2;durP2;ratioP2
64520;SDS011;50896;46.714;17.322;2022-09-29T15:54:36;2.75;;;1.60;;
64520;SDS011;50896;46.714;17.322;2022-09-29T15:57:06;1.73;;;1.20;;
64520;SDS011;50896;46.714;17.322;2022-09-29T15:59:52;1.70;;;1.60;;
64520;SDS011;50896;46.714;17.322;2022-09-29T16:02:25;1.42;;;1.30;;
64520;SDS011;50896;46.714;17.322;2022-09-29T16:05:03;1.45;;;1.35;;
64520;SDS011;50896;46.714;17.322;2022-09-29T16:07:33;2.58;;;1.85;;
64520;SDS011;50896;46.714;17.322;2022-09-29T16:10:12;4.82;;;2.20;;
64520;SDS011;50896;46.714;17.322;2022-09-29T16:12:58;2.92;;;2.13;;
64520;SDS011;50896;46.714;17.322;2022-09-29T16:15:31;2.47;;;1.67;;
64520;SDS011;50896;46.714;17.322;2022-09-29T16:18:01;2.60;;;1.80;;
64520;SDS011;50896;46.714;17.322;2022-09-29T16:20:33;2.72;;;1.88;;
64520;SDS011;50896;46.714;17.322;2022-09-29T16:23:07;3.58;;;2.08;;
64520;SDS011;50896;46.714;17.322;2022-09-29T16:25:42;3.50;;;2.33;;
64520;SDS011;50896;46.714;17.322;2022-09-29T16:28:25;3.35;;;2.00;;
64520;SDS011;50896;46.714;17.322;2022-09-29T16:31:02;4.47;;;1.85;;
64520;SDS011;50896;46.714;17.322;2022-09-29T16:33:31;3.25;;;2.13;;
64520;SDS011;50896;46.714;17.322;2022-09-29T16:36:12;3.08;;;2.75;;
64520;SDS011;50896;46.714;17.322;2022-09-29T16:38:46;3.55;;;3.03;;
64520;SDS011;50896;46.714;17.322;2022-09-29T16:46:54;3.08;;;2.53;;
64520;SDS011;50896;46.714;17.322;2022-09-29T16:49:27;2.58;;;2.30;;
64520;SDS011;50896;46.714;17.322;2022-09-29T16:51:59;2.60;;;2.40;;
64520;SDS011;50896;46.714;17.322;2022-09-29T16:54:42;2.47;;;1.77;;
64520;SDS011;50896;46.714;17.322;2022-09-29T16:57:24;3.40;;;1.95;;
64520;SDS011;50896;46.714;17.322;2022-09-29T16:59:56;4.60;;;1.80;;
64520;SDS011;50896;46.714;17.322;2022-09-29T17:02:30;1.70;;;1.60;;
64520;SDS011;50896;46.714;17.322;2022-09-29T17:04:56;2.70;;;2.10;;
64520;SDS011;50896;46.714;17.322;2022-09-29T17:07:24;3.83;;;2.03;;
64520;SDS011;50896;46.714;17.322;2022-09-29T17:09:53;2.60;;;2.40;;
64520;SDS011;50896;46.714;17.322;2022-09-29T17:12:22;2.45;;;2.25;;
64520;SDS011;50896;46.714;17.322;2022-09-29T17:14:50;2.50;;;2.30;;
64520;SDS011;50896;46.714;17.322;2022-09-29T17:17:17;2.75;;;2.35;;
64520;SDS011;50896;46.714;17.322;2022-09-29T17:19:51;2.78;;;2.58;;
64520;SDS011;50896;46.714;17.322;2022-09-29T17:22:31;4.03;;;2.95;;
64520;SDS011;50896;46.714;17.322;2022-09-29T17:25:00;5.47;;;4.00;;
64520;SDS011;50896;46.714;17.322;2022-09-29T17:27:27;4.20;;;3.33;;
64520;SDS011;50896;46.714;17.322;2022-09-29T17:30:15;4.13;;;2.83;;
64520;SDS011;50896;46.714;17.322;2022-09-29T17:32:46;3.75;;;2.90;;
64520;SDS011;50896;46.714;17.322;2022-09-29T17:35:13;4.07;;;2.45;;
64520;SDS011;50896;46.714;17.322;2022-09-29T17:37:42;3.30;;;2.30;;
64520;SDS011;50896;46.714;17.322;2022-09-29T17:42:47;3.80;;;2.38;;
64520;SDS011;50896;46.714;17.322;2022-09-29T17:45:14;2.30;;;2.10;;
64520;SDS011;50896;46.714;17.322;2022-09-29T17:47:43;3.25;;;1.77;;
64520;SDS011;50896;46.714;17.322;2022-09-29T17:52:47;5.00;;;3.88;;
64520;SDS011;50896;46.714;17.322;2022-09-29T17:55:14;8.05;;;6.10;;
64520;SDS011;50896;46.714;17.322;2022-09-29T17:57:40;12.80;;;7.03;;
64520;SDS011;50896;46.714;17.322;2022-09-29T18:00:19;9.48;;;7.15;;
64520;SDS011;50896;46.714;17.322;2022-09-29T18:02:51;13.10;;;9.70;;
64520;SDS011;50896;46.714;17.322;2022-09-29T18:05:22;10.25;;;8.52;;
64520;SDS011;50896;46.714;17.322;2022-09-29T18:07:50;8.32;;;6.97;;
64520;SDS011;50896;46.714;17.322;2022-09-29T18:10:21;8.52;;;6.80;;
64520;SDS011;50896;46.714;17.322;2022-09-29T18:12:53;7.20;;;6.15;;
64520;SDS011;50896;46.714;17.322;2022-09-29T18:15:20;10.25;;;6.13;;
64520;SDS011;50896;46.714;17.322;2022-09-29T18:17:47;8.57;;;6.43;;
64520;SDS011;50896;46.714;17.322;2022-09-29T18:20:15;7.82;;;6.03;;
64520;SDS011;50896;46.714;17.322;2022-09-29T18:22:44;8.30;;;5.00;;
64520;SDS011;50896;46.714;17.322;2022-09-29T18:25:13;6.68;;;5.53;;
64520;SDS011;50896;46.714;17.322;2022-09-29T18:27:43;5.82;;;5.20;;
64520;SDS011;50896;46.714;17.322;2022-09-29T18:30:19;6.63;;;5.10;;
64520;SDS011;50896;46.714;17.322;2022-09-29T18:33:14;6.50;;;5.75;;
64520;SDS011;50896;46.714;17.322;2022-09-29T18:35:43;6.28;;;5.15;;
64520;SDS011;50896;46.714;17.322;2022-09-29T18:38:11;8.03;;;5.30;;
64520;SDS011;50896;46.714;17.322;2022-09-29T18:40:38;7.13;;;5.70;;
64520;SDS011;50896;46.714;17.322;2022-09-29T18:43:05;7.60;;;5.45;;
64520;SDS011;50896;46.714;17.322;2022-09-29T18:45:33;8.85;;;5.13;;
64520;SDS011;50896;46.714;17.322;2022-09-29T18:48:02;6.45;;;4.80;;
64520;SDS011;50896;46.714;17.322;2022-09-29T18:50:35;6.53;;;4.47;;
64520;SDS011;50896;46.714;17.322;2022-09-29T18:53:04;5.35;;;3.50;;
64520;SDS011;50896;46.714;17.322;2022-09-29T18:55:31;4.65;;;3.30;;
64520;SDS011;50896;46.714;17.322;2022-09-29T18:57:58;3.97;;;3.13;;
64520;SDS011;50896;46.714;17.322;2022-09-29T19:00:27;4.38;;;3.20;;
64520;SDS011;50896;46.714;17.322;2022-09-29T19:02:56;7.90;;;3.92;;
64520;SDS011;50896;46.714;17.322;2022-09-29T19:05:25;7.22;;;4.20;;
64520;SDS011;50896;46.714;17.322;2022-09-29T19:07:58;7.40;;;4.63;;
64520;SDS011;50896;46.714;17.322;2022-09-29T19:10:26;7.00;;;5.07;;
64520;SDS011;50896;46.714;17.322;2022-09-29T19:12:58;7.35;;;5.28;;
64520;SDS011;50896;46.714;17.322;2022-09-29T19:15:28;15.82;;;8.80;;
64520;SDS011;50896;46.714;17.322;2022-09-29T19:18:00;13.90;;;7.90;;
64520;SDS011;50896;46.714;17.322;2022-09-29T19:20:27;11.27;;;7.80;;
64520;SDS011;50896;46.714;17.322;2022-09-29T19:22:55;10.00;;;8.00;;
64520;SDS011;50896;46.714;17.322;2022-09-29T19:25:28;8.75;;;7.07;;
64520;SDS011;50896;46.714;17.322;2022-09-29T19:27:57;11.30;;;7.80;;
64520;SDS011;50896;46.714;17.322;2022-09-29T19:30:24;9.40;;;7.75;;
64520;SDS011;50896;46.714;17.322;2022-09-29T19:32:52;9.68;;;7.13;;
64520;SDS011;50896;46.714;17.322;2022-09-29T19:35:20;7.78;;;6.20;;
64520;SDS011;50896;46.714;17.322;2022-09-29T19:40:22;7.18;;;5.28;;
64520;SDS011;50896;46.714;17.322;2022-09-29T19:42:50;8.32;;;5.50;;
64520;SDS011;50896;46.714;17.322;2022-09-29T19:45:17;8.38;;;4.60;;
64520;SDS011;50896;46.714;17.322;2022-09-29T19:47:44;6.38;;;5.10;;
64520;SDS011;50896;46.714;17.322;2022-09-29T19:50:11;13.25;;;5.82;;
64520;SDS011;50896;46.714;17.322;2022-09-29T19:52:57;8.73;;;6.28;;
64520;SDS011;50896;46.714;17.322;2022-09-29T19:55:24;8.38;;;5.18;;
64520;SDS011;50896;46.714;17.322;2022-09-29T19:57:50;6.50;;;4.80;;
64520;SDS011;50896;46.714;17.322;2022-09-29T20:00:18;5.72;;;4.28;;
64520;SDS011;50896;46.714;17.322;2022-09-29T20:02:46;4.80;;;3.85;;
64520;SDS011;50896;46.714;17.322;2022-09-29T20:05:13;4.75;;;4.10;;
64520;SDS011;50896;46.714;17.322;2022-09-29T20:07:42;6.53;;;3.40;;
64520;SDS011;50896;46.714;17.322;2022-09-29T20:10:10;4.55;;;3.50;;
64520;SDS011;50896;46.714;17.322;2022-09-29T20:12:38;7.07;;;3.90;;
64520;SDS011;50896;46.714;17.322;2022-09-29T20:15:05;5.93;;;4.18;;
64520;SDS011;50896;46.714;17.322;2022-09-29T20:17:33;7.03;;;3.97;;
64520;SDS011;50896;46.714;17.322;2022-09-29T20:20:00;5.57;;;3.60;;
64520;SDS011;50896;46.714;17.322;2022-09-29T20:22:27;6.85;;;4.80;;
64520;SDS011;50896;46.714;17.322;2022-09-29T20:24:57;7.75;;;4.90;;
64520;SDS011;50896;46.714;17.322;2022-09-29T20:27:23;8.02;;;4.28;;
64520;SDS011;50896;46.714;17.322;2022-09-29T20:29:50;10.18;;;4.60;;
64520;SDS011;50896;46.714;17.322;2022-09-29T20:32:17;15.77;;;4.60;;
64520;SDS011;50896;46.714;17.322;2022-09-29T20:37:13;6.10;;;3.92;;
64520;SDS011;50896;46.714;17.322;2022-09-29T20:39:41;6.82;;;3.72;;
64520;SDS011;50896;46.714;17.322;2022-09-29T20:42:08;7.38;;;3.67;;
64520;SDS011;50896;46.714;17.322;2022-09-29T20:44:35;5.25;;;3.00;;
64520;SDS011;50896;46.714;17.322;2022-09-29T20:47:02;6.80;;;3.30;;
64520;SDS011;50896;46.714;17.322;2022-09-29T20:49:28;9.00;;;3.67;;
64520;SDS011;50896;46.714;17.322;2022-09-29T20:51:55;6.88;;;3.60;;
64520;SDS011;50896;46.714;17.322;2022-09-29T20:54:24;5.30;;;3.10;;
64520;SDS011;50896;46.714;17.322;2022-09-29T20:56:51;7.15;;;3.30;;
64520;SDS011;50896;46.714;17.322;2022-09-29T20:59:19;8.75;;;3.35;;
64520;SDS011;50896;46.714;17.322;2022-09-29T21:01:48;5.53;;;3.53;;
64520;SDS011;50896;46.714;17.322;2022-09-29T21:04:17;5.70;;;3.50;;
64520;SDS011;50896;46.714;17.322;2022-09-29T21:06:46;6.13;;;3.83;;
64520;SDS011;50896;46.714;17.322;2022-09-29T21:09:15;7.38;;;3.90;;
64520;SDS011;50896;46.714;17.322;2022-09-29T21:11:45;5.10;;;4.10;;
64520;SDS011;50896;46.714;17.322;2022-09-29T21:14:16;7.20;;;3.97;;
64520;SDS011;50896;46.714;17.322;2022-09-29T21:16:46;4.60;;;3.85;;
64520;SDS011;50896;46.714;17.322;2022-09-29T21:19:17;6.13;;;3.47;;
64520;SDS011;50896;46.714;17.322;2022-09-29T21:21:47;8.40;;;3.92;;
64520;SDS011;50896;46.714;17.322;2022-09-29T21:24:14;4.20;;;3.30;;
64520;SDS011;50896;46.714;17.322;2022-09-29T21:26:41;5.18;;;2.75;;
64520;SDS011;50896;46.714;17.322;2022-09-29T21:29:07;5.32;;;2.83;;
64520;SDS011;50896;46.714;17.322;2022-09-29T21:31:40;4.57;;;2.90;;
64520;SDS011;50896;46.714;17.322;2022-09-29T21:34:08;5.40;;;3.03;;
64520;SDS011;50896;46.714;17.322;2022-09-29T21:36:35;5.55;;;2.97;;
64520;SDS011;50896;46.714;17.322;2022-09-29T21:39:03;3.97;;;2.70;;
64520;SDS011;50896;46.714;17.322;2022-09-29T21:41:35;3.17;;;2.40;;
64520;SDS011;50896;46.714;17.322;2022-09-29T21:44:04;2.90;;;2.53;;
64520;SDS011;50896;46.714;17.322;2022-09-29T21:46:37;4.40;;;2.20;;
64520;SDS011;50896;46.714;17.322;2022-09-29T21:49:04;4.45;;;2.13;;
64520;SDS011;50896;46.714;17.322;2022-09-29T21:51:39;2.97;;;2.50;;
64520;SDS011;50896;46.714;17.322;2022-09-29T21:54:12;3.60;;;2.17;;
64520;SDS011;50896;46.714;17.322;2022-09-29T21:56:41;6.13;;;2.78;;
64520;SDS011;50896;46.714;17.322;2022-09-29T21:59:11;6.67;;;3.20;;
64520;SDS011;50896;46.714;17.322;2022-09-29T22:01:40;3.50;;;2.78;;
64520;SDS011;50896;46.714;17.322;2022-09-29T22:04:07;3.97;;;2.70;;
64520;SDS011;50896;46.714;17.322;2022-09-29T22:06:36;4.20;;;3.10;;
64520;SDS011;50896;46.714;17.322;2022-09-29T22:09:05;4.47;;;3.20;;
64520;SDS011;50896;46.714;17.322;2022-09-29T22:11:34;4.67;;;3.00;;
64520;SDS011;50896;46.714;17.322;2022-09-29T22:14:04;3.67;;;2.50;;
64520;SDS011;50896;46.714;17.322;2022-09-29T22:16:32;4.40;;;2.70;;
64520;SDS011;50896;46.714;17.322;2022-09-29T22:19:01;6.20;;;3.88;;
64520;SDS011;50896;46.714;17.322;2022-09-29T22:21:49;7.27;;;3.10;;
64520;SDS011;50896;46.714;17.322;2022-09-29T22:24:17;6.88;;;2.83;;
64520;SDS011;50896;46.714;17.322;2022-09-29T22:26:44;4.95;;;2.28;;
64520;SDS011;50896;46.714;17.322;2022-09-29T22:29:10;6.28;;;2.80;;
64520;SDS011;50896;46.714;17.322;2022-09-29T22:31:38;6.10;;;2.40;;
64520;SDS011;50896;46.714;17.322;2022-09-29T22:34:06;5.63;;;2.95;;
64520;SDS011;50896;46.714;17.322;2022-09-29T22:36:33;4.15;;;2.45;;
64520;SDS011;50896;46.714;17.322;2022-09-29T22:39:00;5.05;;;2.40;;
64520;SDS011;50896;46.714;17.322;2022-09-29T22:41:29;3.72;;;2.63;;
64520;SDS011;50896;46.714;17.322;2022-09-29T22:43:56;4.07;;;2.40;;
64520;SDS011;50896;46.714;17.322;2022-09-29T22:46:26;4.90;;;2.08;;
64520;SDS011;50896;46.714;17.322;2022-09-29T22:48:55;4.75;;;2.17;;
64520;SDS011;50896;46.714;17.322;2022-09-29T22:51:22;3.25;;;2.40;;
64520;SDS011;50896;46.714;17.322;2022-09-29T22:53:49;4.97;;;2.30;;
64520;SDS011;50896;46.714;17.322;2022-09-29T22:56:18;4.97;;;2.38;;
64520;SDS011;50896;46.714;17.322;2022-09-29T22:58:47;2.50;;;2.30;;
64520;SDS011;50896;46.714;17.322;2022-09-29T23:01:16;6.82;;;3.00;;
64520;SDS011;50896;46.714;17.322;2022-09-29T23:03:45;8.85;;;3.13;;
64520;SDS011;50896;46.714;17.322;2022-09-29T23:06:13;3.75;;;2.50;;
64520;SDS011;50896;46.714;17.322;2022-09-29T23:08:40;2.80;;;2.25;;
64520;SDS011;50896;46.714;17.322;2022-09-29T23:11:12;3.90;;;2.35;;
64520;SDS011;50896;46.714;17.322;2022-09-29T23:13:43;3.70;;;2.22;;
64520;SDS011;50896;46.714;17.322;2022-09-29T23:16:10;4.93;;;2.60;;
64520;SDS011;50896;46.714;17.322;2022-09-29T23:18:39;3.22;;;2.33;;
64520;SDS011;50896;46.714;17.322;2022-09-29T23:21:14;2.75;;;2.03;;
64520;SDS011;50896;46.714;17.322;2022-09-29T23:23:45;3.78;;;2.00;;
64520;SDS011;50896;46.714;17.322;2022-09-29T23:26:13;3.35;;;2.35;;
64520;SDS011;50896;46.714;17.322;2022-09-29T23:28:40;2.75;;;2.28;;
64520;SDS011;50896;46.714;17.322;2022-09-29T23:31:07;3.60;;;2.55;;
64520;SDS011;50896;46.714;17.322;2022-09-29T23:33:35;3.25;;;2.50;;
64520;SDS011;50896;46.714;17.322;2022-09-29T23:36:03;5.70;;;3.05;;
64520;SDS011;50896;46.714;17.322;2022-09-29T23:38:32;6.03;;;3.45;;
64520;SDS011;50896;46.714;17.322;2022-09-29T23:41:18;6.22;;;2.97;;
64520;SDS011;50896;46.714;17.322;2022-09-29T23:43:45;3.97;;;2.55;;
64520;SDS011;50896;46.714;17.322;2022-09-29T23:46:12;5.43;;;2.95;;
64520;SDS011;50896;46.714;17.322;2022-09-29T23:48:39;4.78;;;3.00;;
64520;SDS011;50896;46.714;17.322;2022-09-29T23:51:05;3.50;;;2.50;;
64520;SDS011;50896;46.714;17.322;2022-09-29T23:53:34;5.13;;;2.65;;
64520;SDS011;50896;46.714;17.322;2022-09-29T23:56:01;3.83;;;2.78;;
64520;SDS011;50896;46.714;17.322;2022-09-29T23:58:28;4.63;;;2.95;;
